createdAt,value
2023-01-02T00:00:09.245Z,999.09
2023-01-02T00:01:09.179Z,999.11
2023-01-02T00:02:09.180Z,999.13
2023-01-02T00:03:09.366Z,999.13
2023-01-02T00:04:09.158Z,999.12
2023-01-02T00:05:09.166Z,999.09
2023-01-02T00:06:09.141Z,999.05
2023-01-02T00:07:09.150Z,999.04
2023-01-02T00:08:09.127Z,999.03
2023-01-02T00:09:09.146Z,999.05
2023-01-02T00:10:09.122Z,999.04
2023-01-02T00:11:09.111Z,999.03
2023-01-02T00:12:09.081Z,999.01
2023-01-02T00:13:09.093Z,999.04
2023-01-02T00:14:09.104Z,998.98
2023-01-02T00:15:09.092Z,998.97
2023-01-02T00:16:09.111Z,998.95
2023-01-02T00:17:09.077Z,998.92
2023-01-02T00:18:09.075Z,998.97
2023-01-02T00:19:09.062Z,998.92
2023-01-02T00:20:09.049Z,998.92
2023-01-02T00:21:09.843Z,998.85
2023-01-02T00:22:09.029Z,998.84
2023-01-02T00:23:09.031Z,998.85
2023-01-02T00:24:09.028Z,998.81
2023-01-02T00:25:08.998Z,998.81
2023-01-02T00:26:09.003Z,998.69
2023-01-02T00:27:08.990Z,998.69
2023-01-02T00:28:08.969Z,998.78
2023-01-02T00:29:08.989Z,998.76
2023-01-02T00:30:08.953Z,998.83
2023-01-02T00:31:09.018Z,998.76
2023-01-02T00:32:08.953Z,998.74
2023-01-02T00:33:08.967Z,998.66
2023-01-02T00:34:08.924Z,998.62
2023-01-02T00:35:08.908Z,998.59
2023-01-02T00:36:08.922Z,998.58
2023-01-02T00:37:08.894Z,998.61
2023-01-02T00:38:08.893Z,998.61
2023-01-02T00:39:08.899Z,998.58
2023-01-02T00:40:08.937Z,998.60
2023-01-02T00:41:08.999Z,998.54
2023-01-02T00:42:08.871Z,998.53
2023-01-02T00:43:08.874Z,998.57
2023-01-02T00:44:08.855Z,998.51
2023-01-02T00:45:08.849Z,998.47
2023-01-02T00:46:11.881Z,998.49
2023-01-02T00:47:09.860Z,998.50
2023-01-02T00:48:09.171Z,998.48
2023-01-02T00:49:08.811Z,998.42
2023-01-02T00:50:08.822Z,998.44
2023-01-02T00:51:08.808Z,998.40
2023-01-02T00:52:08.805Z,998.48
2023-01-02T00:53:08.802Z,998.48
2023-01-02T00:54:08.803Z,998.46
2023-01-02T00:55:08.767Z,998.40
2023-01-02T00:56:08.769Z,998.36
2023-01-02T00:57:08.746Z,998.35
2023-01-02T00:58:08.770Z,998.36
2023-01-02T00:59:08.735Z,998.40
2023-01-02T01:00:08.782Z,998.35
2023-01-02T01:01:08.740Z,998.36
2023-01-02T01:02:08.791Z,998.37
2023-01-02T01:03:08.834Z,998.31
2023-01-02T01:04:08.721Z,998.33
2023-01-02T01:05:08.692Z,998.30
2023-01-02T01:06:08.678Z,998.31
2023-01-02T01:07:08.705Z,998.32
2023-01-02T01:08:08.665Z,998.40
2023-01-02T01:09:08.678Z,998.35
2023-01-02T01:10:08.666Z,998.36
2023-01-02T01:11:08.658Z,998.41
2023-01-02T01:12:08.686Z,998.35
2023-01-02T01:13:08.655Z,998.40
2023-01-02T01:14:08.636Z,998.47
2023-01-02T01:15:08.636Z,998.46
2023-01-02T01:16:08.682Z,998.37
2023-01-02T01:17:08.606Z,998.36
2023-01-02T01:18:08.618Z,998.37
2023-01-02T01:19:08.580Z,998.35
2023-01-02T01:20:08.566Z,998.35
2023-01-02T01:21:08.572Z,998.37
2023-01-02T01:22:08.575Z,998.39
2023-01-02T01:23:08.583Z,998.35
2023-01-02T01:24:08.548Z,998.33
2023-01-02T01:25:08.565Z,998.31
2023-01-02T01:26:08.528Z,998.27
2023-01-02T01:27:08.540Z,998.28
2023-01-02T01:28:08.560Z,998.25
2023-01-02T01:29:08.527Z,998.25
2023-01-02T01:30:08.512Z,998.23
2023-01-02T01:31:08.548Z,998.29
2023-01-02T01:32:08.485Z,998.22
2023-01-02T01:33:08.504Z,998.27
2023-01-02T01:34:08.459Z,998.31
2023-01-02T01:35:08.475Z,998.32
2023-01-02T01:36:08.540Z,998.29
2023-01-02T01:37:08.447Z,998.31
2023-01-02T01:38:08.451Z,998.37
2023-01-02T01:39:08.424Z,998.29
2023-01-02T01:40:08.471Z,998.34
2023-01-02T01:41:08.426Z,998.27
2023-01-02T01:42:08.397Z,998.30
2023-01-02T01:43:08.438Z,998.33
2023-01-02T01:44:08.420Z,998.31
2023-01-02T01:45:08.398Z,998.22
2023-01-02T01:46:08.400Z,998.23
2023-01-02T01:47:08.400Z,998.21
2023-01-02T01:48:08.360Z,998.29
2023-01-02T01:49:08.363Z,998.23
2023-01-02T01:50:08.419Z,998.21
2023-01-02T01:51:08.341Z,998.14
2023-01-02T01:52:08.409Z,998.14
2023-01-02T01:53:08.353Z,998.15
2023-01-02T01:54:08.309Z,998.26
2023-01-02T01:55:08.331Z,998.21
2023-01-02T01:56:08.314Z,998.23
2023-01-02T01:57:08.297Z,998.12
2023-01-02T01:58:08.295Z,998.08
2023-01-02T01:59:08.276Z,998.12
2023-01-02T02:00:08.256Z,998.09
2023-01-02T02:01:09.295Z,998.08
2023-01-02T02:02:08.483Z,998.11
2023-01-02T02:03:08.338Z,998.14
2023-01-02T02:04:08.236Z,998.12
2023-01-02T02:05:08.215Z,998.16
2023-01-02T02:06:08.254Z,998.19
2023-01-02T02:07:08.202Z,998.20
2023-01-02T02:08:08.233Z,998.17
2023-01-02T02:09:08.200Z,998.15
2023-01-02T02:10:08.202Z,998.12
2023-01-02T02:11:08.187Z,998.23
2023-01-02T02:12:08.160Z,998.15
2023-01-02T02:13:08.213Z,998.19
2023-01-02T02:14:08.151Z,998.18
2023-01-02T02:15:40.095Z,998.14
2023-01-02T02:16:08.253Z,998.15
2023-01-02T02:17:08.172Z,998.14
2023-01-02T02:18:08.175Z,998.15
2023-01-02T02:19:08.142Z,998.21
2023-01-02T02:20:08.126Z,998.15
2023-01-02T02:21:08.137Z,998.15
2023-01-02T02:22:08.193Z,998.16
2023-01-02T02:23:08.091Z,998.10
2023-01-02T02:24:40.095Z,998.07
2023-01-02T02:25:08.088Z,998.14
2023-01-02T02:26:08.082Z,998.15
2023-01-02T02:27:08.075Z,998.24
2023-01-02T02:28:08.075Z,998.20
2023-01-02T02:29:08.061Z,998.24
2023-01-02T02:30:08.082Z,998.22
2023-01-02T02:31:08.050Z,998.22
2023-01-02T02:32:08.047Z,998.25
2023-01-02T02:33:08.032Z,998.15
2023-01-02T02:34:08.017Z,998.18
2023-01-02T02:35:08.020Z,998.17
2023-01-02T02:36:08.004Z,998.12
2023-01-02T02:37:07.988Z,998.12
2023-01-02T02:38:07.985Z,998.15
2023-01-02T02:39:08.035Z,998.16
2023-01-02T02:40:08.003Z,998.13
2023-01-02T02:41:07.973Z,998.05
2023-01-02T02:42:07.943Z,998.03
2023-01-02T02:43:07.948Z,998.02
2023-01-02T02:44:07.945Z,998.04
2023-01-02T02:45:07.969Z,997.99
2023-01-02T02:46:07.994Z,998.00
2023-01-02T02:47:07.915Z,997.99
2023-01-02T02:48:07.940Z,997.98
2023-01-02T02:49:07.916Z,997.99
2023-01-02T02:50:07.883Z,997.99
2023-01-02T02:51:07.907Z,998.02
2023-01-02T02:52:07.875Z,998.05
2023-01-02T02:53:07.892Z,998.04
2023-01-02T02:54:07.860Z,998.00
2023-01-02T02:55:07.853Z,998.02
2023-01-02T02:56:07.875Z,997.94
2023-01-02T02:57:07.857Z,997.93
2023-01-02T02:58:07.860Z,997.96
2023-01-02T02:59:07.862Z,997.92
2023-01-02T03:00:07.828Z,997.88
2023-01-02T03:01:07.930Z,997.88
2023-01-02T03:02:07.968Z,997.84
2023-01-02T03:03:07.937Z,997.90
2023-01-02T03:04:08.042Z,997.88
2023-01-02T03:05:07.762Z,997.85
2023-01-02T03:06:07.779Z,997.91
2023-01-02T03:07:07.777Z,997.90
2023-01-02T03:08:07.781Z,997.94
2023-01-02T03:09:07.745Z,997.93
2023-01-02T03:10:07.762Z,997.91
2023-01-02T03:11:07.789Z,997.86
2023-01-02T03:12:07.815Z,997.89
2023-01-02T03:13:08.415Z,997.91
2023-01-02T03:14:07.703Z,997.87
2023-01-02T03:15:07.709Z,997.86
2023-01-02T03:16:07.726Z,997.92
2023-01-02T03:17:07.699Z,997.91
2023-01-02T03:18:07.679Z,997.84
2023-01-02T03:19:07.754Z,997.89
2023-01-02T03:20:07.690Z,997.88
2023-01-02T03:21:07.724Z,997.88
2023-01-02T03:22:07.687Z,997.90
2023-01-02T03:23:07.660Z,997.87
2023-01-02T03:24:07.653Z,997.88
2023-01-02T03:25:08.337Z,997.89
2023-01-02T03:26:07.627Z,997.90
2023-01-02T03:27:07.632Z,997.88
2023-01-02T03:28:07.658Z,997.84
2023-01-02T03:29:07.600Z,997.85
2023-01-02T03:30:07.599Z,997.84
2023-01-02T03:31:07.629Z,997.89
2023-01-02T03:32:07.572Z,997.90
2023-01-02T03:33:08.485Z,997.93
2023-01-02T03:34:07.571Z,997.86
2023-01-02T03:35:07.563Z,997.91
2023-01-02T03:36:07.557Z,997.89
2023-01-02T03:37:07.517Z,998.00
2023-01-02T03:38:07.550Z,997.92
2023-01-02T03:39:07.512Z,997.86
2023-01-02T03:40:07.533Z,997.92
2023-01-02T03:41:07.529Z,997.90
2023-01-02T03:42:07.497Z,997.90
2023-01-02T03:43:08.470Z,997.87
2023-01-02T03:44:07.487Z,997.89
2023-01-02T03:45:07.530Z,997.85
2023-01-02T03:46:07.521Z,997.87
2023-01-02T04:02:28.921Z,997.99
2023-01-02T04:03:28.614Z,997.88
2023-01-02T04:04:30.663Z,997.84
2023-01-02T04:05:29.716Z,997.84
2023-01-02T04:06:29.740Z,997.84
2023-01-02T04:07:29.707Z,997.78
2023-01-02T04:08:29.681Z,997.75
2023-01-02T04:09:29.688Z,997.74
2023-01-02T04:10:29.711Z,997.74
2023-01-02T04:11:29.882Z,997.79
2023-01-02T04:12:29.668Z,997.78
2023-01-02T04:13:29.716Z,997.73
2023-01-02T04:14:29.643Z,997.75
2023-01-02T04:15:29.679Z,997.70
2023-01-02T04:16:29.646Z,997.70
2023-01-02T04:17:29.627Z,997.69
2023-01-02T04:18:29.608Z,997.66
2023-01-02T04:19:29.621Z,997.66
2023-01-02T04:20:30.296Z,997.68
2023-01-02T04:21:29.596Z,997.67
2023-01-02T04:22:29.600Z,997.69
2023-01-02T04:23:29.574Z,997.61
2023-01-02T04:24:29.608Z,997.54
2023-01-02T04:25:29.561Z,997.55
2023-01-02T04:26:30.554Z,997.55
2023-01-02T04:27:29.614Z,997.52
2023-01-02T04:28:29.535Z,997.59
2023-01-02T04:29:29.528Z,997.53
2023-01-02T04:30:29.514Z,997.66
2023-01-02T04:31:29.568Z,997.60
2023-01-02T04:32:29.517Z,997.64
2023-01-02T04:33:30.514Z,997.66
2023-01-02T04:34:29.575Z,997.62
2023-01-02T04:35:30.325Z,997.63
2023-01-02T04:36:29.476Z,997.63
2023-01-02T04:37:29.456Z,997.66
2023-01-02T04:38:29.461Z,997.61
2023-01-02T04:39:29.480Z,997.63
2023-01-02T04:40:30.335Z,997.67
2023-01-02T04:41:29.494Z,997.60
2023-01-02T04:42:29.435Z,997.63
2023-01-02T04:43:29.410Z,997.62
2023-01-02T04:44:29.422Z,997.62
2023-01-02T04:45:29.392Z,997.59
2023-01-02T04:46:30.507Z,997.59
2023-01-02T04:47:29.372Z,997.66
2023-01-02T04:48:29.373Z,997.62
2023-01-02T04:49:29.417Z,997.66
2023-01-02T04:50:29.387Z,997.63
2023-01-02T04:51:29.357Z,997.71
2023-01-02T04:52:35.065Z,997.68
2023-01-02T04:53:31.337Z,997.71
2023-01-02T04:54:29.311Z,997.67
2023-01-02T04:55:29.324Z,997.80
2023-01-02T04:56:29.347Z,997.76
2023-01-02T04:57:29.318Z,997.82
2023-01-02T04:58:29.324Z,997.81
2023-01-02T04:59:29.312Z,997.87
2023-01-02T05:00:29.304Z,997.83
2023-01-02T05:01:29.387Z,997.87
2023-01-02T05:02:29.369Z,997.83
2023-01-02T05:03:29.274Z,997.81
2023-01-02T05:04:29.272Z,997.80
2023-01-02T05:05:29.241Z,997.80
2023-01-02T05:06:29.277Z,997.81
2023-01-02T05:07:29.221Z,997.87
2023-01-02T05:08:29.233Z,997.86
2023-01-02T05:09:29.195Z,997.85
2023-01-02T05:10:29.273Z,997.86
2023-01-02T05:11:29.200Z,997.91
2023-01-02T05:12:29.214Z,997.84
2023-01-02T05:13:29.185Z,997.91
2023-01-02T05:14:29.169Z,997.85
2023-01-02T05:15:29.149Z,997.83
2023-01-02T05:16:29.201Z,997.89
2023-01-02T05:17:29.131Z,997.95
2023-01-02T05:18:29.220Z,997.91
2023-01-02T05:19:29.123Z,997.97
2023-01-02T05:20:29.256Z,997.96
2023-01-02T05:21:29.122Z,998.02
2023-01-02T05:22:29.152Z,997.96
2023-01-02T05:23:29.116Z,998.02
2023-01-02T05:24:29.084Z,997.99
2023-01-02T05:25:29.058Z,997.96
2023-01-02T05:26:29.091Z,998.04
2023-01-02T05:27:29.041Z,998.03
2023-01-02T05:28:32.505Z,998.01
2023-01-02T05:29:30.058Z,997.96
2023-01-02T05:30:29.032Z,998.02
2023-01-02T05:31:29.218Z,998.10
2023-01-02T05:32:29.027Z,998.07
2023-01-02T05:33:29.017Z,998.07
2023-01-02T05:34:29.003Z,998.12
2023-01-02T05:35:33.026Z,998.07
2023-01-02T05:36:29.989Z,998.07
2023-01-02T05:37:28.963Z,998.06
2023-01-02T05:38:28.985Z,998.14
2023-01-02T05:39:28.958Z,998.11
2023-01-02T05:40:29.795Z,998.11
2023-01-02T05:41:28.948Z,998.15
2023-01-02T05:42:28.946Z,998.15
2023-01-02T05:43:28.946Z,998.21
2023-01-02T05:44:28.941Z,998.17
2023-01-02T05:45:28.927Z,998.19
2023-01-02T05:46:28.996Z,998.15
2023-01-02T05:48:00.836Z,998.11
2023-01-02T05:48:28.923Z,998.12
2023-01-02T05:49:28.918Z,998.16
2023-01-02T05:50:28.874Z,998.13
2023-01-02T05:51:28.901Z,998.14
2023-01-02T05:52:28.874Z,998.19
2023-01-02T05:53:28.858Z,998.16
2023-01-02T05:54:28.948Z,998.15
2023-01-02T05:55:28.846Z,998.19
2023-01-02T05:56:28.850Z,998.19
2023-01-02T05:57:28.835Z,998.17
2023-01-02T05:58:28.810Z,998.17
2023-01-02T05:59:28.826Z,998.22
2023-01-02T06:00:28.793Z,998.16
2023-01-02T06:01:28.814Z,998.19
2023-01-02T06:02:28.949Z,998.13
2023-01-02T06:03:28.887Z,998.12
2023-01-02T06:04:28.755Z,998.10
2023-01-02T06:05:28.793Z,998.14
2023-01-02T06:06:28.751Z,998.12
2023-01-02T06:07:28.741Z,998.13
2023-01-02T06:08:28.746Z,998.05
2023-01-02T06:09:28.734Z,998.08
2023-01-02T06:10:28.753Z,998.05
2023-01-02T06:11:28.712Z,998.06
2023-01-02T06:12:28.743Z,998.08
2023-01-02T06:13:28.716Z,998.12
2023-01-02T06:14:28.711Z,998.05
2023-01-02T06:15:28.690Z,998.10
2023-01-02T06:17:00.600Z,998.07
2023-01-02T06:17:28.678Z,998.11
2023-01-02T06:18:28.683Z,998.04
2023-01-02T06:19:28.690Z,998.12
2023-01-02T06:20:28.677Z,998.04
2023-01-02T06:21:28.638Z,998.07
2023-01-02T06:22:28.661Z,998.06
2023-01-02T06:23:28.618Z,997.94
2023-01-02T06:24:28.623Z,997.98
2023-01-02T06:25:28.619Z,998.04
2023-01-02T06:26:34.329Z,998.04
2023-01-02T06:27:55.503Z,998.09
2023-01-02T06:28:28.603Z,998.06
2023-01-02T06:29:28.602Z,998.08
2023-01-02T06:30:28.565Z,998.09
2023-01-02T06:31:28.594Z,998.05
2023-01-02T06:32:28.605Z,998.11
2023-01-02T06:33:28.553Z,998.13
2023-01-02T06:34:28.553Z,998.06
2023-01-02T06:35:28.523Z,998.07
2023-01-02T06:36:28.519Z,998.12
2023-01-02T06:37:28.542Z,998.06
2023-01-02T06:38:28.534Z,998.13
2023-01-02T06:39:28.520Z,998.06
2023-01-02T06:40:28.491Z,998.16
2023-01-02T06:41:28.495Z,998.13
2023-01-02T06:42:29.478Z,998.08
2023-01-02T06:43:28.461Z,998.04
2023-01-02T06:44:28.447Z,998.04
2023-01-02T06:45:28.473Z,998.02
2023-01-02T06:46:28.464Z,998.02
2023-01-02T06:47:28.465Z,998.04
2023-01-02T06:48:28.432Z,998.02
2023-01-02T06:49:28.423Z,998.07
2023-01-02T06:50:34.685Z,998.01
2023-01-02T06:51:30.401Z,998.09
2023-01-02T06:52:28.416Z,998.05
2023-01-02T06:53:28.409Z,998.01
2023-01-02T06:54:28.390Z,998.10
2023-01-02T06:55:28.355Z,998.15
2023-01-02T06:57:00.300Z,998.08
2023-01-02T06:57:28.364Z,998.05
2023-01-02T06:58:28.431Z,998.07
2023-01-02T06:59:28.340Z,998.08
2023-01-02T07:00:28.333Z,998.10
2023-01-02T07:01:28.406Z,998.08
2023-01-02T07:02:28.365Z,998.07
2023-01-02T07:03:28.301Z,998.15
2023-01-02T07:04:29.325Z,998.19
2023-01-02T07:05:28.328Z,998.23
2023-01-02T07:06:28.295Z,998.20
2023-01-02T07:07:28.312Z,998.23
2023-01-02T07:08:28.273Z,998.22
2023-01-02T07:09:28.262Z,998.21
2023-01-02T07:10:28.286Z,998.25
2023-01-02T07:11:28.266Z,998.28
2023-01-02T07:12:28.253Z,998.22
2023-01-02T07:13:28.234Z,998.23
2023-01-02T07:14:28.256Z,998.17
2023-01-02T07:15:28.217Z,998.25
2023-01-02T07:16:28.229Z,998.26
2023-01-02T07:17:28.214Z,998.29
2023-01-02T07:18:28.226Z,998.24
2023-01-02T07:19:28.201Z,998.22
2023-01-02T07:20:28.171Z,998.23
2023-01-02T07:21:28.160Z,998.24
2023-01-02T07:22:28.159Z,998.24
2023-01-02T07:23:28.148Z,998.23
2023-01-02T07:24:28.159Z,998.28
2023-01-02T07:25:28.147Z,998.35
2023-01-02T07:26:28.117Z,998.35
2023-01-02T07:27:28.133Z,998.35
2023-01-02T07:28:28.136Z,998.32
2023-01-02T07:29:28.131Z,998.31
2023-01-02T07:30:28.113Z,998.28
2023-01-02T07:31:28.162Z,998.27
2023-01-02T07:32:28.094Z,998.31
2023-01-02T07:33:28.076Z,998.30
2023-01-02T07:34:28.070Z,998.31
2023-01-02T07:35:28.133Z,998.13
2023-01-02T07:36:28.045Z,998.24
2023-01-02T07:37:28.043Z,998.20
2023-01-02T07:38:28.024Z,998.24
2023-01-02T07:39:28.018Z,998.12
2023-01-02T07:40:32.110Z,998.23
2023-01-02T07:41:29.035Z,998.28
2023-01-02T07:42:27.989Z,998.33
2023-01-02T07:43:27.993Z,998.35
2023-01-02T07:44:27.987Z,998.31
2023-01-02T07:45:28.075Z,998.32
2023-01-02T07:46:28.211Z,998.33
2023-01-02T07:47:27.950Z,998.37
2023-01-02T07:48:28.520Z,998.39
2023-01-02T07:49:27.960Z,998.34
2023-01-02T07:50:27.956Z,998.29
2023-01-02T07:51:28.931Z,998.21
2023-01-02T07:52:27.918Z,998.14
2023-01-02T07:53:27.898Z,998.16
2023-01-02T07:54:27.916Z,998.13
2023-01-02T07:55:27.919Z,998.11
2023-01-02T07:56:27.899Z,998.09
2023-01-02T07:57:27.870Z,998.00
2023-01-02T07:58:27.865Z,997.98
2023-01-02T07:59:27.892Z,998.01
2023-01-02T08:00:27.954Z,997.94
2023-01-02T08:01:27.960Z,997.97
2023-01-02T08:02:27.968Z,998.04
2023-01-02T08:03:27.860Z,998.14
2023-01-02T08:04:27.876Z,998.14
2023-01-02T08:05:27.853Z,998.20
2023-01-02T08:06:27.805Z,998.14
2023-01-02T08:07:27.808Z,998.11
2023-01-02T08:08:27.805Z,998.24
2023-01-02T08:09:27.794Z,998.23
2023-01-02T08:10:27.826Z,998.33
2023-01-02T08:11:27.786Z,998.44
2023-01-02T08:12:27.786Z,998.42
2023-01-02T08:13:27.772Z,998.45
2023-01-02T08:14:27.750Z,998.44
2023-01-02T08:15:59.672Z,998.43
2023-01-02T08:16:27.774Z,998.43
2023-01-02T08:17:27.732Z,998.35
2023-01-02T08:18:30.144Z,998.40
2023-01-02T08:19:27.734Z,998.34
2023-01-02T08:20:27.728Z,998.38
2023-01-02T08:21:27.724Z,998.37
2023-01-02T08:22:27.702Z,998.52
2023-01-02T08:23:27.684Z,998.44
2023-01-02T08:24:27.664Z,998.55
2023-01-02T08:25:27.648Z,998.53
2023-01-02T08:26:27.667Z,998.57
2023-01-02T08:27:27.676Z,998.44
2023-01-02T08:28:27.630Z,998.44
2023-01-02T08:29:27.753Z,998.46
2023-01-02T08:30:27.620Z,998.52
2023-01-02T08:31:27.697Z,998.51
2023-01-02T08:32:27.603Z,998.51
2023-01-02T08:33:27.604Z,998.61
2023-01-02T08:34:27.601Z,998.56
2023-01-02T08:35:38.113Z,998.56
2023-01-02T08:36:29.579Z,998.43
2023-01-02T08:37:27.595Z,998.42
2023-01-02T08:38:28.523Z,998.50
2023-01-02T08:39:27.564Z,998.43
2023-01-02T08:40:28.525Z,998.41
2023-01-02T08:41:27.565Z,998.40
2023-01-02T08:42:28.086Z,998.42
2023-01-02T08:43:27.531Z,998.57
2023-01-02T08:44:28.067Z,998.55
2023-01-02T08:45:27.499Z,998.43
2023-01-02T08:46:27.561Z,998.49
2023-01-02T08:47:27.523Z,998.48
2023-01-02T08:48:27.478Z,998.53
2023-01-02T08:49:27.475Z,998.55
2023-01-02T08:50:27.458Z,998.53
2023-01-02T08:51:27.493Z,998.58
2023-01-02T08:52:27.488Z,998.59
2023-01-02T08:53:27.496Z,998.58
2023-01-02T08:54:27.514Z,998.62
2023-01-02T08:55:27.417Z,998.71
2023-01-02T08:56:27.421Z,998.70
2023-01-02T08:57:27.399Z,998.73
2023-01-02T08:58:28.046Z,998.74
2023-01-02T08:59:28.393Z,998.73
2023-01-02T09:00:27.376Z,998.81
2023-01-02T09:01:28.121Z,998.80
2023-01-02T09:02:27.513Z,998.78
2023-01-02T09:03:27.429Z,998.71
2023-01-02T09:04:27.368Z,998.78
2023-01-02T09:05:27.349Z,998.74
2023-01-02T09:06:27.444Z,998.84
2023-01-02T09:07:27.360Z,998.84
2023-01-02T09:08:27.334Z,998.78
2023-01-02T09:09:27.328Z,998.85
2023-01-02T09:10:27.297Z,998.90
2023-01-02T09:11:27.313Z,998.89
2023-01-02T09:12:27.323Z,998.89
2023-01-02T09:13:27.301Z,998.96
2023-01-02T09:14:27.303Z,998.93
2023-01-02T09:15:27.382Z,998.86
2023-01-02T09:16:27.273Z,998.88
2023-01-02T09:17:27.245Z,998.91
2023-01-02T09:18:29.503Z,998.91
2023-01-02T09:19:28.283Z,998.98
2023-01-02T09:20:27.224Z,999.02
2023-01-02T09:21:27.234Z,999.05
2023-01-02T09:22:27.223Z,999.06
2023-01-02T09:23:27.203Z,999.02
2023-01-02T09:24:27.219Z,998.98
2023-01-02T09:25:27.179Z,999.00
2023-01-02T09:26:27.198Z,999.13
2023-01-02T09:27:28.191Z,999.16
2023-01-02T09:28:27.162Z,999.20
2023-01-02T09:29:27.203Z,999.16
2023-01-02T09:30:27.152Z,999.16
2023-01-02T09:31:27.209Z,999.14
2023-01-02T09:32:27.172Z,999.15
2023-01-02T09:33:27.152Z,999.20
2023-01-02T09:34:27.170Z,999.14
2023-01-02T09:35:27.114Z,999.07
2023-01-02T09:36:27.101Z,999.09
2023-01-02T09:37:27.087Z,999.09
2023-01-02T09:38:27.078Z,999.02
2023-01-02T09:39:32.152Z,999.03
2023-01-02T09:40:29.089Z,999.02
2023-01-02T09:41:27.114Z,999.02
2023-01-02T09:42:27.077Z,999.02
2023-01-02T09:43:27.109Z,998.98
2023-01-02T09:44:27.089Z,998.97
2023-01-02T09:45:27.129Z,998.98
2023-01-02T09:46:27.071Z,999.08
2023-01-02T09:47:27.037Z,998.98
2023-01-02T09:48:27.018Z,999.07
2023-01-02T09:49:27.008Z,999.04
2023-01-02T09:50:27.029Z,999.12
2023-01-02T09:51:26.993Z,999.09
2023-01-02T09:52:27.026Z,999.16
2023-01-02T09:53:26.962Z,999.11
2023-01-02T09:54:27.053Z,999.15
2023-01-02T09:55:26.968Z,999.10
2023-01-02T09:56:31.940Z,999.16
2023-01-02T09:57:28.928Z,999.22
2023-01-02T09:58:26.952Z,999.27
2023-01-02T09:59:26.920Z,999.25
2023-01-02T10:00:26.939Z,999.22
2023-01-02T10:01:58.828Z,999.22
2023-01-02T10:02:26.964Z,999.26
2023-01-02T10:03:27.010Z,999.21
2023-01-02T10:04:58.800Z,999.27
2023-01-02T10:05:26.897Z,999.24
2023-01-02T10:06:26.871Z,999.28
2023-01-02T10:07:26.863Z,999.20
2023-01-02T10:08:31.870Z,999.24
2023-01-02T10:09:53.785Z,999.20
2023-01-02T10:10:26.919Z,999.21
2023-01-02T10:11:27.468Z,999.19
2023-01-02T10:12:26.854Z,999.30
2023-01-02T10:13:44.211Z,999.30
2023-01-02T10:14:35.025Z,999.36
2023-01-02T10:15:28.775Z,999.34
2023-01-02T10:16:27.826Z,999.34
2023-01-02T10:17:26.835Z,999.31
2023-01-02T10:18:26.811Z,999.26
2023-01-02T10:19:26.834Z,999.33
2023-01-02T10:20:26.792Z,999.25
2023-01-02T10:21:26.759Z,999.26
2023-01-02T10:22:26.743Z,999.21
2023-01-02T10:23:26.726Z,999.32
2023-01-02T10:24:27.472Z,999.30
2023-01-02T10:25:26.909Z,999.35
2023-01-02T10:26:26.697Z,999.33
2023-01-02T10:27:26.771Z,999.36
2023-01-02T10:28:26.695Z,999.36
2023-01-02T10:29:26.688Z,999.29
2023-01-02T10:30:26.687Z,999.34
2023-01-02T10:31:26.725Z,999.34
2023-01-02T10:32:26.738Z,999.34
2023-01-02T10:33:26.648Z,999.39
2023-01-02T10:34:26.644Z,999.41
2023-01-02T10:35:26.653Z,999.43
2023-01-02T10:36:26.664Z,999.38
2023-01-02T10:37:26.702Z,999.38
2023-01-02T10:38:26.661Z,999.36
2023-01-02T10:39:26.607Z,999.35
2023-01-02T10:40:26.627Z,999.33
2023-01-02T10:41:26.609Z,999.40
2023-01-02T10:42:26.552Z,999.46
2023-01-02T10:43:26.590Z,999.47
2023-01-02T10:44:26.569Z,999.51
2023-01-02T10:45:26.580Z,999.47
2023-01-02T10:46:26.592Z,999.49
2023-01-02T10:47:26.561Z,999.51
2023-01-02T10:48:26.559Z,999.49
2023-01-02T10:49:26.563Z,999.46
2023-01-02T10:50:26.560Z,999.52
2023-01-02T10:51:26.541Z,999.52
2023-01-02T10:52:27.187Z,999.53
2023-01-02T10:53:27.057Z,999.55
2023-01-02T10:54:26.505Z,999.60
2023-01-02T10:55:26.492Z,999.62
2023-01-02T10:56:27.483Z,999.64
2023-01-02T10:57:26.473Z,999.62
2023-01-02T10:58:26.565Z,999.72
2023-01-02T10:59:26.448Z,999.77
2023-01-02T11:00:28.360Z,999.69
2023-01-02T11:01:27.582Z,999.71
2023-01-02T11:02:26.494Z,999.77
2023-01-02T11:03:26.416Z,999.75
2023-01-02T11:04:26.457Z,999.79
2023-01-02T11:05:26.430Z,999.71
2023-01-02T11:06:28.203Z,999.75
2023-01-02T11:07:27.400Z,999.68
2023-01-02T11:08:26.388Z,999.73
2023-01-02T11:09:26.385Z,999.73
2023-01-02T11:10:26.375Z,999.71
2023-01-02T11:11:27.147Z,999.75
2023-01-02T11:12:27.760Z,999.79
2023-01-02T11:13:27.652Z,999.66
2023-01-02T11:14:26.334Z,999.79
2023-01-02T11:15:26.335Z,999.82
2023-01-02T11:16:26.342Z,999.75
2023-01-02T11:17:26.329Z,999.75
2023-01-02T11:18:26.307Z,999.76
2023-01-02T11:19:29.820Z,999.83
2023-01-02T11:20:27.281Z,999.82
2023-01-02T11:21:26.276Z,999.81
2023-01-02T11:22:26.294Z,999.92
2023-01-02T11:23:26.256Z,999.83
2023-01-02T11:24:26.325Z,999.83
2023-01-02T11:25:26.258Z,999.88
2023-01-02T11:26:26.235Z,999.88
2023-01-02T11:27:26.222Z,999.84
2023-01-02T11:28:26.220Z,999.89
2023-01-02T11:29:26.361Z,999.90
2023-01-02T11:30:26.270Z,999.86
2023-01-02T11:31:26.352Z,999.83
2023-01-02T11:32:26.302Z,999.83
2023-01-02T11:33:26.197Z,999.74
2023-01-02T11:34:26.171Z,999.79
2023-01-02T11:35:26.181Z,999.65
2023-01-02T11:36:26.165Z,999.68
2023-01-02T11:37:26.187Z,999.68
2023-01-02T11:38:29.827Z,999.66
2023-01-02T11:39:26.159Z,999.64
2023-01-02T11:40:27.131Z,999.65
2023-01-02T11:41:26.129Z,999.77
2023-01-02T11:42:26.129Z,999.70
2023-01-02T11:43:26.149Z,999.65
2023-01-02T11:44:26.116Z,999.64
2023-01-02T11:45:26.214Z,999.63
2023-01-02T11:46:26.090Z,999.59
2023-01-02T11:47:26.063Z,999.64
2023-01-02T11:48:26.086Z,999.61
2023-01-02T11:49:26.115Z,999.66
2023-01-02T11:50:26.092Z,999.68
2023-01-02T11:51:26.064Z,999.64
2023-01-02T11:52:26.118Z,999.64
2023-01-02T11:53:26.025Z,999.63
2023-01-02T11:54:26.045Z,999.63
2023-01-02T11:55:26.012Z,999.75
2023-01-02T11:56:26.051Z,999.72
2023-01-02T11:57:25.984Z,999.69
2023-01-02T11:58:27.003Z,999.82
2023-01-02T11:59:25.989Z,999.73
2023-01-02T12:00:25.962Z,999.75
2023-01-02T12:01:26.553Z,999.82
2023-01-02T12:02:26.032Z,999.84
2023-01-02T12:03:26.039Z,999.79
2023-01-02T12:04:25.993Z,999.77
2023-01-02T12:05:25.967Z,999.81
2023-01-02T12:06:25.936Z,999.83
2023-01-02T12:07:25.932Z,999.84
2023-01-02T12:08:25.935Z,999.85
2023-01-02T12:09:25.948Z,999.89
2023-01-02T12:10:26.649Z,999.85
2023-01-02T12:11:25.916Z,999.83
2023-01-02T12:12:25.885Z,999.86
2023-01-02T12:13:25.876Z,999.80
2023-01-02T12:14:25.926Z,999.87
2023-01-02T12:15:25.911Z,999.82
2023-01-02T12:16:25.957Z,999.76
2023-01-02T12:17:25.858Z,999.84
2023-01-02T12:18:25.854Z,999.83
2023-01-02T12:19:25.866Z,999.86
2023-01-02T12:20:25.839Z,999.86
2023-01-02T12:21:25.815Z,999.83
2023-01-02T12:22:25.890Z,999.78
2023-01-02T12:23:25.872Z,999.86
2023-01-02T12:24:25.793Z,999.81
2023-01-02T12:25:26.784Z,999.83
2023-01-02T12:26:25.815Z,999.88
2023-01-02T12:27:25.780Z,999.89
2023-01-02T12:28:25.778Z,999.90
2023-01-02T12:29:46.213Z,999.90
2023-01-02T12:30:28.632Z,999.94
2023-01-02T12:31:25.804Z,999.95
2023-01-02T12:32:25.798Z,999.98
2023-01-02T12:33:25.739Z,1000.00
2023-01-02T12:34:25.743Z,999.98
2023-01-02T12:35:25.737Z,999.99
2023-01-02T12:36:25.754Z,999.98
2023-01-02T12:37:25.710Z,1000.04
2023-01-02T12:38:30.106Z,1000.06
2023-01-02T12:39:27.695Z,1000.09
2023-01-02T12:40:25.786Z,1000.08
2023-01-02T12:41:25.652Z,1000.14
2023-01-02T12:42:25.662Z,1000.13
2023-01-02T12:43:25.675Z,1000.18